Asukamaru — JG5536 — position and weather

sailwx.info

Track history (hours):
 
Tides and Currents Weather Stations Pressure Air Temp Water Temp Dewpoint Dewpoint Depression Visibility Wind Speed Wind Dir Waves Ship Positions

Asukamaru

Last reported at 2017-Dec-17 10:15 UTC. Time now 2017-Dec-17 15:30 UTC.
Position N 35°38' E 139°45'.

Length 31 m; draft 3 m.

Type: Tug. MMSI: 431001145.

Date/timePositionNaut miles runAvg speedWind from/ knotsBaromVisibWave heightAir tempDewpointWater temp
2017-Dec-17 10:15N 35°38' E 139°45'0 0.0
2017-Dec-17 09:52N 35°38' E 139°45'0 0.0
2017-Dec-17 08:10N 35°38' E 139°45'0 0.0
2017-Dec-17 07:55N 35°38' E 139°45'0 0.0
2017-Dec-17 07:30N 35°38' E 139°45'0 0.0
2017-Dec-17 06:59N 35°38' E 139°45'0 0.0
2017-Dec-17 06:30N 35°38' E 139°45'0 0.0
2017-Dec-16 21:24N 35°38' E 139°45'410.1
2017-Dec-16 21:01N 35°35' E 139°48'2 4.1
2017-Dec-16 20:30N 35°36' E 139°46'2 4.0
2017-Dec-16 20:00N 35°38' E 139°45'0 0.4
2017-Dec-16 19:30N 35°38' E 139°46'1 1.3
2017-Dec-16 19:00N 35°37' E 139°46'2 3.3
2017-Dec-16 18:29N 35°37' E 139°48'0 0.3
2017-Dec-16 17:46N 35°37' E 139°48'2 7.2
2017-Dec-16 17:30N 35°38' E 139°46'0 0.1
2017-Dec-16 13:14N 35°38' E 139°45'311.3
2017-Dec-16 13:00N 35°36' E 139°47'1 1.7
2017-Dec-16 12:30N 35°37' E 139°46'2 2.7
2017-Dec-16 11:50N 35°38' E 139°45'0 0.0
2017-Dec-16 11:23N 35°38' E 139°45'0 0.0
2017-Dec-16 10:43N 35°38' E 139°45'0 0.7
2017-Dec-16 10:30N 35°38' E 139°46'2 4.4
2017-Dec-16 10:00N 35°36' E 139°46'1 1.7
2017-Dec-16 09:27N 35°37' E 139°46'1 1.9
2017-Dec-16 08:44N 35°38' E 139°45'0 0.0
2017-Dec-16 08:14N 35°38' E 139°45'0 0.0
2017-Dec-16 07:54N 35°38' E 139°45'0 0.0
2017-Dec-16 07:04N 35°38' E 139°45'0 0.0
2017-Dec-16 06:58N 35°38' E 139°45'0 0.0
2017-Dec-16 06:30N 35°38' E 139°45'0 0.0
2017-Dec-16 06:00N 35°38' E 139°45'0 0.0
2017-Dec-16 04:44N 35°38' E 139°45'0 0.0
2017-Dec-16 04:28N 35°38' E 139°45'0 0.0
2017-Dec-16 00:10N 35°38' E 139°45'0 0.0
2017-Dec-15 22:47N 35°38' E 139°45'2 7.9
2017-Dec-15 22:30N 35°36' E 139°46'1 1.3
2017-Dec-15 22:00N 35°36' E 139°47'2 3.1
2017-Dec-15 21:30N 35°34' E 139°48'2 4.6
2017-Dec-15 21:00N 35°36' E 139°46'1 2.6
2017-Dec-15 20:30N 35°37' E 139°46'1 0.1
2017-Dec-15 12:45N 35°38' E 139°45'0 0.0
2017-Dec-15 12:18N 35°38' E 139°45'0 0.0
2017-Dec-15 11:52N 35°38' E 139°45'0 0.0
2017-Dec-15 10:52N 35°38' E 139°45'0 0.0
2017-Dec-15 08:55N 35°38' E 139°45'0 0.0
2017-Dec-15 08:30N 35°38' E 139°45'0 0.0
2017-Dec-15 07:50N 35°38' E 139°45'0 0.0
2017-Dec-15 07:22N 35°38' E 139°45'0 0.0
2017-Dec-15 06:58N 35°38' E 139°45'1 2.3
2017-Dec-15 06:30N 35°37' E 139°46'0 0.3
2017-Dec-15 06:00N 35°37' E 139°46'1 0.9
2017-Dec-15 04:58N 35°38' E 139°45'0 0.0
2017-Dec-15 03:38N 35°38' E 139°45'0 0.0
2017-Dec-14 18:24N 35°38' E 139°45'0 0.0
2017-Dec-14 11:36N 35°38' E 139°45'0 0.0
2017-Dec-14 11:26N 35°38' E 139°45'0 0.0
2017-Dec-14 08:19N 35°38' E 139°45'0 0.0
2017-Dec-14 07:57N 35°38' E 139°45'0 0.0
2017-Dec-14 03:56N 35°38' E 139°45'0 0.0
2017-Dec-14 02:57N 35°38' E 139°45'0 0.0
2017-Dec-14 00:04N 35°38' E 139°46'1 8.6
2017-Dec-14 00:00N 35°38' E 139°46'2 4.2
2017-Dec-13 23:27N 35°35' E 139°47'1 1.7
2017-Dec-13 23:00N 35°35' E 139°47'2 3.8
2017-Dec-13 22:30N 35°34' E 139°49'1 1.1
2017-Dec-13 22:00N 35°34' E 139°49'2 3.0
2017-Dec-13 21:28N 35°35' E 139°47'1 1.1
2017-Dec-13 20:59N 35°36' E 139°48'1 1.5
2017-Dec-13 20:30N 35°36' E 139°47'1 1.6
2017-Dec-13 19:59N 35°37' E 139°46'2 1.3
2017-Dec-13 18:44N 35°38' E 139°45'0 0.0
2017-Dec-13 18:29N 35°38' E 139°45'0 0.0
2017-Dec-13 07:39N 35°38' E 139°45'0 0.0
2017-Dec-13 06:56N 35°38' E 139°45'0 0.0
2017-Dec-13 05:50N 35°38' E 139°45'0 0.0
2017-Dec-13 05:10N 35°38' E 139°45'0 0.0
2017-Dec-13 04:58N 35°38' E 139°45'0 0.0
2017-Dec-13 03:33N 35°38' E 139°45'0 0.0
2017-Dec-13 03:13N 35°38' E 139°45'0 0.0
2017-Dec-13 02:10N 35°38' E 139°45'0 0.0
2017-Dec-13 01:57N 35°38' E 139°45'0 0.0
2017-Dec-13 00:40N 35°38' E 139°45'0 0.0
2017-Dec-13 00:22N 35°38' E 139°45'0 0.0
2017-Dec-12 23:57N 35°38' E 139°45'0 0.1
2017-Dec-12 22:39N 35°38' E 139°46'1 9.6
2017-Dec-12 22:30N 35°37' E 139°46'2 3.3
2017-Dec-12 22:00N 35°35' E 139°47'1 2.2
2017-Dec-12 21:31N 35°35' E 139°48'1 2.7
2017-Dec-12 21:00N 35°35' E 139°47'0 0.8
2017-Dec-12 20:30N 35°36' E 139°47'0 1.0
2017-Dec-12 20:00N 35°36' E 139°46'2 1.1
2017-Dec-12 18:02N 35°38' E 139°45'0 0.0
2017-Dec-12 16:16N 35°38' E 139°45'0 0.0
2017-Dec-12 14:26N 35°38' E 139°45'0 0.0
2017-Dec-12 05:29N 35°38' E 139°45'2 1.6
2017-Dec-12 04:18N 35°37' E 139°47'1 2.8
2017-Dec-12 04:00N 35°36' E 139°48'2 4.6
2017-Dec-12 03:31N 35°34' E 139°49'2 3.9
2017-Dec-12 03:00N 35°36' E 139°47'3 1.5
2017-Dec-12 01:03N 35°38' E 139°45'0 0.0
2017-Dec-11 22:13N 35°38' E 139°45'0 0.0
2017-Dec-11 16:32N 35°38' E 139°45'0 0.0
2017-Dec-11 14:30N 35°38' E 139°45'0 0.0
2017-Dec-11 13:51N 35°38' E 139°45'0 0.0
2017-Dec-11 13:25N 35°38' E 139°45'2 4.5
2017-Dec-11 13:00N 35°37' E 139°46'1 1.8
2017-Dec-11 12:22N 35°36' E 139°48'0 0.7
2017-Dec-11 11:57N 35°37' E 139°48'0 0.9
2017-Dec-11 11:25N 35°37' E 139°47'0 0.3
2017-Dec-11 10:48N 35°37' E 139°47'0 0.0
2017-Dec-11 10:20N 35°37' E 139°47'0 0.0
2017-Dec-11 09:55N 35°37' E 139°47'0 0.0
2017-Dec-11 09:30N 35°37' E 139°47'1 1.3
2017-Dec-11 08:58N 35°36' E 139°47'0 0.1
2017-Dec-11 08:29N 35°36' E 139°47'2 4.2
2017-Dec-11 07:59N 35°38' E 139°46'1 1.1
2017-Dec-11 07:30N 35°38' E 139°46'2 4.4
2017-Dec-11 06:59N 35°36' E 139°47'0 1.0
2017-Dec-11 06:30N 35°36' E 139°47'0 0.3
2017-Dec-11 06:00N 35°35' E 139°47'2 4.1
2017-Dec-11 05:30N 35°37' E 139°46'1 0.7
2017-Dec-11 04:21N 35°38' E 139°45'0 0.0
2017-Dec-11 03:34N 35°38' E 139°45'0 0.0
2017-Dec-10 22:58N 35°38' E 139°46'2 4.1
2017-Dec-10 22:28N 35°36' E 139°46'3 5.7
2017-Dec-10 21:56N 35°34' E 139°49'3 6.0
2017-Dec-10 21:29N 35°36' E 139°47'2 2.5
2017-Dec-10 20:30N 35°38' E 139°45'0 0.0
2017-Dec-10 16:50N 35°38' E 139°45'0 0.0
2017-Dec-10 16:18N 35°38' E 139°45'0 0.0
2017-Dec-10 12:41N 35°38' E 139°45'0 0.0
2017-Dec-10 12:19N 35°38' E 139°45'0 0.0
2017-Dec-10 11:53N 35°38' E 139°45'0 0.0
2017-Dec-10 11:23N 35°38' E 139°45'0 0.0
2017-Dec-10 10:52N 35°38' E 139°45'0 0.0
2017-Dec-10 10:22N 35°38' E 139°45'0 0.0
2017-Dec-10 09:58N 35°38' E 139°45'0 0.0
2017-Dec-10 09:02N 35°38' E 139°45'0 0.0
2017-Dec-10 08:57N 35°38' E 139°45'0 0.1
2017-Dec-10 07:25N 35°38' E 139°46'2 5.0
2017-Dec-10 06:59N 35°36' E 139°47'1 2.6
2017-Dec-10 06:31N 35°37' E 139°46'1 2.2
2017-Dec-10 06:00N 35°38' E 139°45'0 0.0
2017-Dec-09 23:38N 35°38' E 139°45'1 9.7
2017-Dec-09 23:28N 35°37' E 139°46'1 2.4
2017-Dec-09 23:00N 35°36' E 139°47'2 4.0
2017-Dec-09 22:31N 35°34' E 139°48'2 3.0
2017-Dec-09 21:59N 35°35' E 139°47'0 0.6
2017-Dec-09 21:28N 35°35' E 139°47'0 0.0
2017-Dec-09 21:00N 35°35' E 139°47'1 2.8
2017-Dec-09 20:30N 35°37' E 139°47'2 0.7
2017-Dec-09 17:53N 35°38' E 139°45'0 0.0
2017-Dec-09 16:39N 35°38' E 139°45'0 0.0
2017-Dec-09 16:23N 35°38' E 139°45'0 0.0
2017-Dec-09 13:51N 35°38' E 139°45'0 0.0
2017-Dec-09 13:27N 35°38' E 139°45'0 0.0
2017-Dec-09 12:55N 35°38' E 139°45'0 0.0
2017-Dec-09 11:52N 35°38' E 139°45'0 0.0
2017-Dec-09 11:25N 35°38' E 139°45'0 0.0
2017-Dec-09 10:40N 35°38' E 139°45'0 0.0
2017-Dec-09 10:30N 35°38' E 139°45'0 0.0
2017-Dec-09 10:00N 35°38' E 139°45'0 0.0
2017-Dec-09 09:30N 35°38' E 139°45'0 0.0
2017-Dec-09 08:59N 35°38' E 139°45'0 0.0
2017-Dec-09 08:25N 35°38' E 139°45'0 0.0
2017-Dec-09 07:58N 35°38' E 139°45'0 0.0
2017-Dec-09 07:29N 35°38' E 139°45'0 0.0
2017-Dec-09 06:58N 35°38' E 139°45'0 0.0
2017-Dec-09 06:15N 35°38' E 139°45'0 0.0
2017-Dec-09 05:57N 35°38' E 139°45'0 0.0
2017-Dec-09 05:30N 35°38' E 139°45'0 0.0
2017-Dec-09 04:59N 35°38' E 139°45'0 0.0
2017-Dec-09 02:50N 35°38' E 139°45'0 0.0
2017-Dec-09 00:33N 35°38' E 139°45'0 0.0
2017-Dec-08 23:39N 35°38' E 139°45'0 0.0
2017-Dec-08 23:21N 35°38' E 139°45'0 0.0
2017-Dec-08 22:53N 35°38' E 139°45'0 0.0
2017-Dec-08 22:10N 35°38' E 139°45'0 0.0
2017-Dec-08 21:44N 35°38' E 139°45'0 0.0
2017-Dec-08 15:00N 35°38' E 139°45'0 0.0
2017-Dec-08 14:30N 35°38' E 139°45'0 0.0
2017-Dec-08 13:16N 35°38' E 139°45'0 0.0
2017-Dec-08 12:53N 35°38' E 139°45'2 4.3
2017-Dec-08 12:30N 35°37' E 139°46'1 1.0
2017-Dec-08 11:58N 35°37' E 139°47'0 0.3
2017-Dec-08 11:30N 35°36' E 139°47'1 1.7
2017-Dec-08 10:58N 35°36' E 139°47'0 0.0
2017-Dec-08 10:20N 35°36' E 139°47'1 3.0
2017-Dec-08 10:00N 35°36' E 139°46'1 2.1
2017-Dec-08 09:29N 35°38' E 139°46'1 0.3
2017-Dec-08 07:19N 35°38' E 139°45'3 8.1
2017-Dec-08 06:59N 35°36' E 139°47'1 2.5
2017-Dec-08 06:30N 35°37' E 139°46'1 2.3
2017-Dec-08 05:52N 35°38' E 139°45'0 0.0
2017-Dec-08 00:37N 35°38' E 139°45'0 0.0
2017-Dec-07 23:11N 35°38' E 139°45'0 1.8
2017-Dec-07 23:00N 35°38' E 139°46'2 3.7
2017-Dec-07 22:30N 35°36' E 139°47'2 4.2
2017-Dec-07 22:01N 35°34' E 139°48'1 1.3
2017-Dec-07 21:30N 35°35' E 139°47'1 2.3
2017-Dec-07 21:01N 35°36' E 139°47'2 4.5
2017-Dec-07 20:31N 35°38' E 139°46'0 0.0
2017-Dec-07 11:27N 35°38' E 139°45'0 0.0
2017-Dec-07 10:55N 35°38' E 139°45'0 0.0
2017-Dec-07 10:15N 35°38' E 139°45'  
Track history (hours):
 
Tides and Currents Weather Stations Pressure Air Temp Water Temp Dewpoint Dewpoint Depression Visibility Wind Speed Wind Dir Waves Ship Positions

Asukamaru

Last reported at 2017-Dec-17 10:15 UTC. Time now 2017-Dec-17 15:30 UTC.
Position N 35°38' E 139°45'.

Length 31 m; draft 3 m.

Type: Tug. MMSI: 431001145.

Date/timePositionNaut miles runAvg speedWind from/ knotsBaromVisibWave heightAir tempDewpointWater temp
2017-Dec-17 10:15N 35°38' E 139°45'0 0.0
2017-Dec-17 09:52N 35°38' E 139°45'0 0.0
2017-Dec-17 08:10N 35°38' E 139°45'0 0.0
2017-Dec-17 07:55N 35°38' E 139°45'0 0.0
2017-Dec-17 07:30N 35°38' E 139°45'0 0.0
2017-Dec-17 06:59N 35°38' E 139°45'0 0.0
2017-Dec-17 06:30N 35°38' E 139°45'0 0.0
2017-Dec-16 21:24N 35°38' E 139°45'410.1
2017-Dec-16 21:01N 35°35' E 139°48'2 4.1
2017-Dec-16 20:30N 35°36' E 139°46'2 4.0
2017-Dec-16 20:00N 35°38' E 139°45'0 0.4
2017-Dec-16 19:30N 35°38' E 139°46'1 1.3
2017-Dec-16 19:00N 35°37' E 139°46'2 3.3
2017-Dec-16 18:29N 35°37' E 139°48'0 0.3
2017-Dec-16 17:46N 35°37' E 139°48'2 7.2
2017-Dec-16 17:30N 35°38' E 139°46'0 0.1
2017-Dec-16 13:14N 35°38' E 139°45'311.3
2017-Dec-16 13:00N 35°36' E 139°47'1 1.7
2017-Dec-16 12:30N 35°37' E 139°46'2 2.7
2017-Dec-16 11:50N 35°38' E 139°45'0 0.0
2017-Dec-16 11:23N 35°38' E 139°45'0 0.0
2017-Dec-16 10:43N 35°38' E 139°45'0 0.7
2017-Dec-16 10:30N 35°38' E 139°46'2 4.4
2017-Dec-16 10:00N 35°36' E 139°46'1 1.7
2017-Dec-16 09:27N 35°37' E 139°46'1 1.9
2017-Dec-16 08:44N 35°38' E 139°45'0 0.0
2017-Dec-16 08:14N 35°38' E 139°45'0 0.0
2017-Dec-16 07:54N 35°38' E 139°45'0 0.0
2017-Dec-16 07:04N 35°38' E 139°45'0 0.0
2017-Dec-16 06:58N 35°38' E 139°45'0 0.0
2017-Dec-16 06:30N 35°38' E 139°45'0 0.0
2017-Dec-16 06:00N 35°38' E 139°45'0 0.0
2017-Dec-16 04:44N 35°38' E 139°45'0 0.0
2017-Dec-16 04:28N 35°38' E 139°45'0 0.0
2017-Dec-16 00:10N 35°38' E 139°45'0 0.0
2017-Dec-15 22:47N 35°38' E 139°45'2 7.9
2017-Dec-15 22:30N 35°36' E 139°46'1 1.3
2017-Dec-15 22:00N 35°36' E 139°47'2 3.1
2017-Dec-15 21:30N 35°34' E 139°48'2 4.6
2017-Dec-15 21:00N 35°36' E 139°46'1 2.6
2017-Dec-15 20:30N 35°37' E 139°46'1 0.1
2017-Dec-15 12:45N 35°38' E 139°45'0 0.0
2017-Dec-15 12:18N 35°38' E 139°45'0 0.0
2017-Dec-15 11:52N 35°38' E 139°45'0 0.0
2017-Dec-15 10:52N 35°38' E 139°45'0 0.0
2017-Dec-15 08:55N 35°38' E 139°45'0 0.0
2017-Dec-15 08:30N 35°38' E 139°45'0 0.0
2017-Dec-15 07:50N 35°38' E 139°45'0 0.0
2017-Dec-15 07:22N 35°38' E 139°45'0 0.0
2017-Dec-15 06:58N 35°38' E 139°45'1 2.3
2017-Dec-15 06:30N 35°37' E 139°46'0 0.3
2017-Dec-15 06:00N 35°37' E 139°46'1 0.9
2017-Dec-15 04:58N 35°38' E 139°45'0 0.0
2017-Dec-15 03:38N 35°38' E 139°45'0 0.0
2017-Dec-14 18:24N 35°38' E 139°45'0 0.0
2017-Dec-14 11:36N 35°38' E 139°45'0 0.0
2017-Dec-14 11:26N 35°38' E 139°45'0 0.0
2017-Dec-14 08:19N 35°38' E 139°45'0 0.0
2017-Dec-14 07:57N 35°38' E 139°45'0 0.0
2017-Dec-14 03:56N 35°38' E 139°45'0 0.0
2017-Dec-14 02:57N 35°38' E 139°45'0 0.0
2017-Dec-14 00:04N 35°38' E 139°46'1 8.6
2017-Dec-14 00:00N 35°38' E 139°46'2 4.2
2017-Dec-13 23:27N 35°35' E 139°47'1 1.7
2017-Dec-13 23:00N 35°35' E 139°47'2 3.8
2017-Dec-13 22:30N 35°34' E 139°49'1 1.1
2017-Dec-13 22:00N 35°34' E 139°49'2 3.0
2017-Dec-13 21:28N 35°35' E 139°47'1 1.1
2017-Dec-13 20:59N 35°36' E 139°48'1 1.5
2017-Dec-13 20:30N 35°36' E 139°47'1 1.6
2017-Dec-13 19:59N 35°37' E 139°46'2 1.3
2017-Dec-13 18:44N 35°38' E 139°45'0 0.0
2017-Dec-13 18:29N 35°38' E 139°45'0 0.0
2017-Dec-13 07:39N 35°38' E 139°45'0 0.0
2017-Dec-13 06:56N 35°38' E 139°45'0 0.0
2017-Dec-13 05:50N 35°38' E 139°45'0 0.0
2017-Dec-13 05:10N 35°38' E 139°45'0 0.0
2017-Dec-13 04:58N 35°38' E 139°45'0 0.0
2017-Dec-13 03:33N 35°38' E 139°45'0 0.0
2017-Dec-13 03:13N 35°38' E 139°45'0 0.0
2017-Dec-13 02:10N 35°38' E 139°45'0 0.0
2017-Dec-13 01:57N 35°38' E 139°45'0 0.0
2017-Dec-13 00:40N 35°38' E 139°45'0 0.0
2017-Dec-13 00:22N 35°38' E 139°45'0 0.0
2017-Dec-12 23:57N 35°38' E 139°45'0 0.1
2017-Dec-12 22:39N 35°38' E 139°46'1 9.6
2017-Dec-12 22:30N 35°37' E 139°46'2 3.3
2017-Dec-12 22:00N 35°35' E 139°47'1 2.2
2017-Dec-12 21:31N 35°35' E 139°48'1 2.7
2017-Dec-12 21:00N 35°35' E 139°47'0 0.8
2017-Dec-12 20:30N 35°36' E 139°47'0 1.0
2017-Dec-12 20:00N 35°36' E 139°46'2 1.1
2017-Dec-12 18:02N 35°38' E 139°45'0 0.0
2017-Dec-12 16:16N 35°38' E 139°45'0 0.0
2017-Dec-12 14:26N 35°38' E 139°45'0 0.0
2017-Dec-12 05:29N 35°38' E 139°45'2 1.6
2017-Dec-12 04:18N 35°37' E 139°47'1 2.8
2017-Dec-12 04:00N 35°36' E 139°48'2 4.6
2017-Dec-12 03:31N 35°34' E 139°49'2 3.9
2017-Dec-12 03:00N 35°36' E 139°47'3 1.5
2017-Dec-12 01:03N 35°38' E 139°45'0 0.0
2017-Dec-11 22:13N 35°38' E 139°45'0 0.0
2017-Dec-11 16:32N 35°38' E 139°45'0 0.0
2017-Dec-11 14:30N 35°38' E 139°45'0 0.0
2017-Dec-11 13:51N 35°38' E 139°45'0 0.0
2017-Dec-11 13:25N 35°38' E 139°45'2 4.5
2017-Dec-11 13:00N 35°37' E 139°46'1 1.8
2017-Dec-11 12:22N 35°36' E 139°48'0 0.7
2017-Dec-11 11:57N 35°37' E 139°48'0 0.9
2017-Dec-11 11:25N 35°37' E 139°47'0 0.3
2017-Dec-11 10:48N 35°37' E 139°47'0 0.0
2017-Dec-11 10:20N 35°37' E 139°47'0 0.0
2017-Dec-11 09:55N 35°37' E 139°47'0 0.0
2017-Dec-11 09:30N 35°37' E 139°47'1 1.3
2017-Dec-11 08:58N 35°36' E 139°47'0 0.1
2017-Dec-11 08:29N 35°36' E 139°47'2 4.2
2017-Dec-11 07:59N 35°38' E 139°46'1 1.1
2017-Dec-11 07:30N 35°38' E 139°46'2 4.4
2017-Dec-11 06:59N 35°36' E 139°47'0 1.0
2017-Dec-11 06:30N 35°36' E 139°47'0 0.3
2017-Dec-11 06:00N 35°35' E 139°47'2 4.1
2017-Dec-11 05:30N 35°37' E 139°46'1 0.7
2017-Dec-11 04:21N 35°38' E 139°45'0 0.0
2017-Dec-11 03:34N 35°38' E 139°45'0 0.0
2017-Dec-10 22:58N 35°38' E 139°46'2 4.1
2017-Dec-10 22:28N 35°36' E 139°46'3 5.7
2017-Dec-10 21:56N 35°34' E 139°49'3 6.0
2017-Dec-10 21:29N 35°36' E 139°47'2 2.5
2017-Dec-10 20:30N 35°38' E 139°45'0 0.0
2017-Dec-10 16:50N 35°38' E 139°45'0 0.0
2017-Dec-10 16:18N 35°38' E 139°45'0 0.0
2017-Dec-10 12:41N 35°38' E 139°45'0 0.0
2017-Dec-10 12:19N 35°38' E 139°45'0 0.0
2017-Dec-10 11:53N 35°38' E 139°45'0 0.0
2017-Dec-10 11:23N 35°38' E 139°45'0 0.0
2017-Dec-10 10:52N 35°38' E 139°45'0 0.0
2017-Dec-10 10:22N 35°38' E 139°45'0 0.0
2017-Dec-10 09:58N 35°38' E 139°45'0 0.0
2017-Dec-10 09:02N 35°38' E 139°45'0 0.0
2017-Dec-10 08:57N 35°38' E 139°45'0 0.1
2017-Dec-10 07:25N 35°38' E 139°46'2 5.0
2017-Dec-10 06:59N 35°36' E 139°47'1 2.6
2017-Dec-10 06:31N 35°37' E 139°46'1 2.2
2017-Dec-10 06:00N 35°38' E 139°45'0 0.0
2017-Dec-09 23:38N 35°38' E 139°45'1 9.7
2017-Dec-09 23:28N 35°37' E 139°46'1 2.4
2017-Dec-09 23:00N 35°36' E 139°47'2 4.0
2017-Dec-09 22:31N 35°34' E 139°48'2 3.0
2017-Dec-09 21:59N 35°35' E 139°47'0 0.6
2017-Dec-09 21:28N 35°35' E 139°47'0 0.0
2017-Dec-09 21:00N 35°35' E 139°47'1 2.8
2017-Dec-09 20:30N 35°37' E 139°47'2 0.7
2017-Dec-09 17:53N 35°38' E 139°45'0 0.0
2017-Dec-09 16:39N 35°38' E 139°45'0 0.0
2017-Dec-09 16:23N 35°38' E 139°45'0 0.0
2017-Dec-09 13:51N 35°38' E 139°45'0 0.0
2017-Dec-09 13:27N 35°38' E 139°45'0 0.0
2017-Dec-09 12:55N 35°38' E 139°45'0 0.0
2017-Dec-09 11:52N 35°38' E 139°45'0 0.0
2017-Dec-09 11:25N 35°38' E 139°45'0 0.0
2017-Dec-09 10:40N 35°38' E 139°45'0 0.0
2017-Dec-09 10:30N 35°38' E 139°45'0 0.0
2017-Dec-09 10:00N 35°38' E 139°45'0 0.0
2017-Dec-09 09:30N 35°38' E 139°45'0 0.0
2017-Dec-09 08:59N 35°38' E 139°45'0 0.0
2017-Dec-09 08:25N 35°38' E 139°45'0 0.0
2017-Dec-09 07:58N 35°38' E 139°45'0 0.0
2017-Dec-09 07:29N 35°38' E 139°45'0 0.0
2017-Dec-09 06:58N 35°38' E 139°45'0 0.0
2017-Dec-09 06:15N 35°38' E 139°45'0 0.0
2017-Dec-09 05:57N 35°38' E 139°45'0 0.0
2017-Dec-09 05:30N 35°38' E 139°45'0 0.0
2017-Dec-09 04:59N 35°38' E 139°45'0 0.0
2017-Dec-09 02:50N 35°38' E 139°45'0 0.0
2017-Dec-09 00:33N 35°38' E 139°45'0 0.0
2017-Dec-08 23:39N 35°38' E 139°45'0 0.0
2017-Dec-08 23:21N 35°38' E 139°45'0 0.0
2017-Dec-08 22:53N 35°38' E 139°45'0 0.0
2017-Dec-08 22:10N 35°38' E 139°45'0 0.0
2017-Dec-08 21:44N 35°38' E 139°45'0 0.0
2017-Dec-08 15:00N 35°38' E 139°45'0 0.0
2017-Dec-08 14:30N 35°38' E 139°45'0 0.0
2017-Dec-08 13:16N 35°38' E 139°45'0 0.0
2017-Dec-08 12:53N 35°38' E 139°45'2 4.3
2017-Dec-08 12:30N 35°37' E 139°46'1 1.0
2017-Dec-08 11:58N 35°37' E 139°47'0 0.3
2017-Dec-08 11:30N 35°36' E 139°47'1 1.7
2017-Dec-08 10:58N 35°36' E 139°47'0 0.0
2017-Dec-08 10:20N 35°36' E 139°47'1 3.0
2017-Dec-08 10:00N 35°36' E 139°46'1 2.1
2017-Dec-08 09:29N 35°38' E 139°46'1 0.3
2017-Dec-08 07:19N 35°38' E 139°45'3 8.1
2017-Dec-08 06:59N 35°36' E 139°47'1 2.5
2017-Dec-08 06:30N 35°37' E 139°46'1 2.3
2017-Dec-08 05:52N 35°38' E 139°45'0 0.0
2017-Dec-08 00:37N 35°38' E 139°45'0 0.0
2017-Dec-07 23:11N 35°38' E 139°45'0 1.8
2017-Dec-07 23:00N 35°38' E 139°46'2 3.7
2017-Dec-07 22:30N 35°36' E 139°47'2 4.2
2017-Dec-07 22:01N 35°34' E 139°48'1 1.3
2017-Dec-07 21:30N 35°35' E 139°47'1 2.3
2017-Dec-07 21:01N 35°36' E 139°47'2 4.5
2017-Dec-07 20:31N 35°38' E 139°46'0 0.0
2017-Dec-07 11:27N 35°38' E 139°45'0 0.0
2017-Dec-07 10:55N 35°38' E 139°45'0 0.0
2017-Dec-07 10:15N 35°38' E 139°45'  

Dump ship's entire track history